Time;durP1;ratioP1;P1;durP2;ratioP2;P2;SDS_P1;SDS_P2;PMS_P1;PMS_P2;Temp;Humidity;BMP_temperature;BMP_pressure;BME280_temperature;BME280_humidity;BME280_pressure;Samples;Min_cycle;Max_cycle;Signal;HPM_P1;HPM_P2
2022/09/16 00:00:42;;;;;;;5.95;3.22;;;12.30;99.90;;;;;;4989258;28;20117;-59
2022/09/16 00:03:08;;;;;;;8.65;2.55;;;12.30;99.90;;;;;;4990962;28;20109;-59
2022/09/16 00:05:39;;;;;;;10.27;2.10;;;12.40;99.90;;;;;;4988442;28;20034;-60
2022/09/16 00:08:05;;;;;;;5.15;2.15;;;12.40;99.90;;;;;;4990838;28;20478;-60
2022/09/16 00:10:31;;;;;;;8.70;2.30;;;12.40;99.90;;;;;;4989627;28;20030;-60
2022/09/16 00:12:57;;;;;;;9.07;2.22;;;12.40;99.90;;;;;;4988247;28;20030;-60
2022/09/16 00:15:22;;;;;;;4.13;1.80;;;12.50;99.90;;;;;;4990481;28;20034;-60
2022/09/16 00:17:48;;;;;;;3.00;1.92;;;12.50;99.90;;;;;;4989001;28;20034;-60
2022/09/16 00:20:14;;;;;;;3.70;1.50;;;12.60;99.90;;;;;;4990405;28;20121;-59
2022/09/16 00:22:39;;;;;;;4.28;1.67;;;12.70;99.90;;;;;;4988423;28;20092;-59
2022/09/16 00:25:06;;;;;;;7.10;1.25;;;12.90;99.90;;;;;;4990860;28;20124;-59
2022/09/16 00:27:31;;;;;;;4.32;1.52;;;13.00;99.90;;;;;;4983301;28;21044;-59
2022/09/16 00:29:57;;;;;;;11.63;2.58;;;13.00;99.90;;;;;;4990411;28;20022;-59
2022/09/16 00:32:23;;;;;;;5.10;1.27;;;13.00;99.90;;;;;;4990247;28;20034;-59
2022/09/16 00:34:50;;;;;;;2.38;1.35;;;13.00;99.90;;;;;;4988987;28;20450;-59
2022/09/16 00:37:15;;;;;;;2.63;1.60;;;13.00;99.90;;;;;;4990168;28;20335;-60
2022/09/16 00:39:41;;;;;;;4.07;1.13;;;13.00;99.90;;;;;;4988297;28;20030;-60
2022/09/16 00:42:10;;;;;;;2.90;1.10;;;13.00;99.90;;;;;;4990081;28;20298;-59
2022/09/16 00:45:00;;;;;;;5.43;1.38;;;12.90;99.90;;;;;;4988194;28;20041;-60
2022/09/16 00:47:39;;;;;;;4.75;1.25;;;12.90;99.90;;;;;;4988868;28;20046;-59
2022/09/16 00:50:15;;;;;;;4.20;1.08;;;12.90;99.90;;;;;;4989026;28;20032;-59
2022/09/16 00:52:42;;;;;;;2.97;0.90;;;12.90;99.90;;;;;;4979707;28;20484;-59
2022/09/16 00:55:13;;;;;;;4.47;1.33;;;12.90;99.90;;;;;;4989558;28;20134;-59
2022/09/16 00:57:40;;;;;;;3.70;1.00;;;12.80;99.90;;;;;;4989984;28;20049;-59
2022/09/16 01:00:12;;;;;;;4.50;1.33;;;12.80;99.90;;;;;;4990499;28;20386;-59
2022/09/16 01:02:39;;;;;;;2.28;0.98;;;12.80;99.90;;;;;;4988757;28;20548;-57
2022/09/16 01:05:08;;;;;;;2.88;1.15;;;12.80;99.90;;;;;;4991873;28;20037;-60
2022/09/16 01:07:41;;;;;;;2.13;1.10;;;12.80;99.90;;;;;;4990555;28;20076;-58
2022/09/16 01:10:07;;;;;;;2.22;0.70;;;12.80;99.90;;;;;;4992560;28;20038;-60
2022/09/16 01:12:33;;;;;;;2.10;0.77;;;12.80;99.90;;;;;;4989876;28;20134;-60
2022/09/16 01:15:01;;;;;;;4.97;0.80;;;12.70;99.90;;;;;;4992286;28;20474;-59
2022/09/16 01:17:43;;;;;;;5.28;0.90;;;12.70;99.90;;;;;;4992351;28;20034;-60
2022/09/16 01:20:36;;;;;;;3.17;1.27;;;12.70;99.90;;;;;;4988084;28;20031;-60
2022/09/16 01:23:24;;;;;;;3.33;0.80;;;12.70;99.90;;;;;;4992266;28;20501;-60
2022/09/16 01:26:17;;;;;;;2.50;0.98;;;12.60;99.90;;;;;;4988332;28;20038;-60
2022/09/16 01:28:58;;;;;;;4.25;1.10;;;12.60;99.90;;;;;;4982824;28;20033;-60
2022/09/16 01:31:45;;;;;;;2.50;1.42;;;12.60;99.90;;;;;;4988945;28;20058;-60
2022/09/16 01:34:34;;;;;;;3.10;0.85;;;12.60;99.90;;;;;;4988620;28;20058;-60
2022/09/16 01:37:27;;;;;;;3.78;1.00;;;12.50;99.90;;;;;;4986679;28;20528;-60
2022/09/16 01:40:08;;;;;;;2.33;0.77;;;12.50;99.90;;;;;;4979518;28;20157;-60
2022/09/16 01:42:46;;;;;;;4.85;0.90;;;12.50;99.90;;;;;;4983896;28;20062;-60
2022/09/16 01:45:37;;;;;;;3.92;1.20;;;12.50;99.90;;;;;;4989064;28;20026;-60
2022/09/16 01:48:18;;;;;;;3.35;0.90;;;12.40;99.90;;;;;;4988682;28;20084;-60
2022/09/16 01:51:00;;;;;;;3.10;0.90;;;12.40;99.90;;;;;;4987069;28;21605;-59
2022/09/16 01:53:57;;;;;;;2.75;0.80;;;12.30;99.90;;;;;;4986640;28;20283;-59
2022/09/16 01:56:32;;;;;;;4.28;0.80;;;12.30;99.90;;;;;;4983643;28;20032;-60
2022/09/16 01:59:05;;;;;;;3.35;1.05;;;12.30;99.90;;;;;;4988598;28;20085;-60
2022/09/16 02:01:37;;;;;;;4.10;0.88;;;12.30;99.90;;;;;;4987570;28;20026;-60
2022/09/16 02:04:10;;;;;;;;;;;12.30;99.90;;;;;;4988289;28;20041;-61
2022/09/16 02:06:39;;;;;;;1.77;1.15;;;12.40;99.90;;;;;;4985318;28;20365;-60
2022/09/16 02:09:23;;;;;;;4.35;0.73;;;12.40;99.90;;;;;;4987472;28;20022;-60
2022/09/16 02:11:53;;;;;;;3.95;0.70;;;12.40;99.90;;;;;;4984146;28;20042;-60
2022/09/16 02:14:26;;;;;;;5.68;1.05;;;12.40;99.90;;;;;;4981679;28;20100;-60
2022/09/16 02:17:05;;;;;;;4.55;1.10;;;12.40;99.90;;;;;;4980934;28;20034;-60
2022/09/16 02:19:41;;;;;;;2.55;0.73;;;12.30;99.90;;;;;;4985706;28;20122;-60
2022/09/16 02:22:12;;;;;;;2.03;0.85;;;12.40;99.90;;;;;;4990694;28;20042;-58
2022/09/16 02:24:40;;;;;;;3.28;0.98;;;12.30;99.90;;;;;;4989290;28;20030;-59
2022/09/16 02:27:11;;;;;;;1.42;0.63;;;12.40;99.90;;;;;;4990712;28;20039;-59
2022/09/16 02:29:43;;;;;;;7.03;1.05;;;12.40;99.90;;;;;;4978733;28;20093;-59
2022/09/16 02:32:10;;;;;;;3.50;1.30;;;12.40;99.90;;;;;;4990025;28;20125;-60
2022/09/16 02:34:49;;;;;;;2.45;1.15;;;12.30;99.90;;;;;;4988281;28;20022;-59
2022/09/16 02:37:20;;;;;;;0.77;0.60;;;12.30;99.90;;;;;;4990972;28;20065;-59
2022/09/16 02:39:49;;;;;;;3.60;0.93;;;12.30;99.90;;;;;;4989092;28;20022;-59
2022/09/16 02:42:15;;;;;;;2.17;0.80;;;12.20;99.90;;;;;;4989512;28;20038;-60
2022/09/16 02:44:43;;;;;;;6.47;1.42;;;12.10;99.90;;;;;;4979239;28;20546;-59
2022/09/16 02:47:09;;;;;;;1.10;0.80;;;12.10;99.90;;;;;;4989617;28;20034;-59
2022/09/16 02:49:45;;;;;;;3.10;0.90;;;12.10;99.90;;;;;;4982993;28;20054;-60
2022/09/16 02:52:10;;;;;;;1.25;0.70;;;12.00;99.90;;;;;;4990683;28;20490;-59
2022/09/16 02:55:00;;;;;;;2.15;0.63;;;12.00;99.90;;;;;;4988649;28;20023;-59
2022/09/16 02:57:27;;;;;;;2.58;0.75;;;11.90;99.90;;;;;;4990417;28;20398;-59
2022/09/16 02:59:53;;;;;;;1.35;0.75;;;11.90;99.90;;;;;;4985762;28;20429;-59
2022/09/16 03:02:20;;;;;;;4.88;0.90;;;11.80;99.90;;;;;;4990114;28;20114;-59
2022/09/16 03:04:46;;;;;;;2.45;0.90;;;11.80;99.90;;;;;;4988688;28;20022;-59
2022/09/16 03:07:12;;;;;;;3.25;0.75;;;11.80;99.90;;;;;;4990379;28;20097;-59
2022/09/16 03:09:41;;;;;;;4.10;0.70;;;11.80;99.90;;;;;;4988089;28;20205;-59
2022/09/16 03:12:19;;;;;;;1.80;0.68;;;11.80;99.90;;;;;;4989801;28;20509;-59
2022/09/16 03:15:09;;;;;;;3.25;1.08;;;11.80;99.90;;;;;;4987284;28;20072;-59
2022/09/16 03:18:10;;;;;;;3.38;1.20;;;11.70;99.90;;;;;;4987977;28;20053;-59
2022/09/16 03:20:45;;;;;;;3.17;1.02;;;11.70;99.90;;;;;;4985868;28;20494;-59
2022/09/16 03:23:40;;;;;;;4.43;0.90;;;11.70;99.90;;;;;;4986702;28;20026;-59
2022/09/16 03:26:25;;;;;;;2.78;0.80;;;11.70;99.90;;;;;;4981644;28;20046;-59
2022/09/16 03:28:57;;;;;;;3.75;0.90;;;11.70;99.90;;;;;;4979459;28;20988;-59
2022/09/16 03:31:28;;;;;;;2.63;0.77;;;11.70;99.90;;;;;;4989454;28;20118;-60
2022/09/16 03:34:36;;;;;;;3.83;1.00;;;11.70;99.90;;;;;;4988287;28;20035;-59
2022/09/16 03:37:07;;;;;;;4.20;1.23;;;11.70;99.90;;;;;;4977421;28;20065;-59
2022/09/16 03:39:34;;;;;;;1.13;0.68;;;11.70;99.90;;;;;;4979108;28;20031;-59
2022/09/16 03:42:07;;;;;;;5.57;1.15;;;11.70;99.90;;;;;;4983429;28;20034;-59
2022/09/16 03:44:35;;;;;;;1.25;0.70;;;11.60;99.90;;;;;;4985954;28;20100;-60
2022/09/16 03:47:02;;;;;;;3.03;0.70;;;11.60;99.90;;;;;;4982325;28;20192;-59
2022/09/16 03:49:29;;;;;;;5.90;1.08;;;11.60;99.90;;;;;;4979009;28;20050;-59
2022/09/16 03:51:55;;;;;;;3.85;0.90;;;11.50;99.90;;;;;;4977245;28;20414;-59
2022/09/16 03:54:22;;;;;;;1.83;0.75;;;11.40;99.90;;;;;;4985271;28;20035;-59
2022/09/16 03:56:47;;;;;;;0.98;0.70;;;11.40;99.90;;;;;;4982406;28;20054;-59
2022/09/16 03:59:13;;;;;;;2.08;0.65;;;11.40;99.90;;;;;;4985307;28;20073;-59
2022/09/16 04:01:39;;;;;;;3.35;1.25;;;11.30;99.90;;;;;;4982260;28;20046;-59
2022/09/16 04:04:05;;;;;;;2.67;0.77;;;11.30;99.90;;;;;;4987503;28;20062;-59
2022/09/16 04:06:31;;;;;;;4.18;0.82;;;11.30;99.90;;;;;;4987620;28;20571;-59
2022/09/16 04:08:58;;;;;;;2.75;0.70;;;11.20;99.90;;;;;;4975627;28;20034;-60
2022/09/16 04:11:24;;;;;;;3.80;1.10;;;11.10;99.90;;;;;;4983246;28;20433;-59
2022/09/16 04:13:49;;;;;;;1.55;0.60;;;11.10;99.90;;;;;;4982544;28;20130;-59
2022/09/16 04:16:20;;;;;;;3.85;0.90;;;11.00;99.90;;;;;;4989486;28;20031;-59
2022/09/16 04:18:46;;;;;;;1.75;0.90;;;11.00;99.90;;;;;;4987611;28;20014;-59
2022/09/16 04:21:12;;;;;;;3.03;0.80;;;10.90;99.90;;;;;;4989659;28;20034;-59
2022/09/16 04:23:38;;;;;;;5.35;1.00;;;10.80;99.90;;;;;;4986522;28;20031;-59
2022/09/16 04:26:04;;;;;;;2.88;0.82;;;10.70;99.90;;;;;;4983759;28;20371;-60
2022/09/16 04:28:31;;;;;;;2.85;0.77;;;10.70;99.90;;;;;;4991115;28;20472;-59
2022/09/16 04:31:02;;;;;;;4.90;0.98;;;10.40;99.90;;;;;;4985039;28;20394;-59
2022/09/16 04:33:29;;;;;;;1.63;1.02;;;10.60;99.90;;;;;;4992872;28;20512;-59
2022/09/16 04:36:04;;;;;;;4.13;0.70;;;10.60;99.90;;;;;;4989655;28;20031;-59
2022/09/16 04:38:30;;;;;;;1.27;0.52;;;10.50;99.90;;;;;;4993181;28;20057;-59
2022/09/16 04:41:01;;;;;;;1.60;0.60;;;10.50;99.90;;;;;;4991046;28;20065;-59
2022/09/16 04:43:27;;;;;;;1.75;0.38;;;10.50;99.90;;;;;;4988228;28;20113;-59
2022/09/16 04:45:53;;;;;;;2.03;0.60;;;10.50;99.90;;;;;;4990029;28;20117;-59
2022/09/16 04:48:18;;;;;;;5.80;0.90;;;10.40;99.90;;;;;;4992659;28;20038;-59
2022/09/16 04:50:44;;;;;;;1.35;0.60;;;10.40;99.90;;;;;;4987364;28;20027;-59
2022/09/16 04:53:10;;;;;;;2.40;0.85;;;10.40;99.90;;;;;;4990697;28;20126;-59
2022/09/16 04:55:36;;;;;;;4.80;0.93;;;10.40;99.90;;;;;;4988189;28;20033;-59
2022/09/16 04:58:02;;;;;;;2.17;0.82;;;10.40;99.90;;;;;;4989464;28;20033;-59
2022/09/16 05:00:28;;;;;;;5.03;1.38;;;10.40;99.90;;;;;;4989061;28;20437;-59
2022/09/16 05:02:54;;;;;;;2.35;0.60;;;10.40;99.90;;;;;;4987587;28;20042;-59
2022/09/16 05:05:20;;;;;;;4.30;0.95;;;10.30;99.90;;;;;;4989455;28;20042;-59
2022/09/16 05:07:46;;;;;;;1.98;0.90;;;10.30;99.90;;;;;;4987974;28;20173;-59
2022/09/16 05:10:12;;;;;;;1.48;0.70;;;10.30;99.90;;;;;;4990300;28;20498;-59
2022/09/16 05:12:38;;;;;;;2.33;0.60;;;10.30;99.90;;;;;;4987267;28;20065;-59
2022/09/16 05:15:04;;;;;;;6.00;0.95;;;10.30;99.90;;;;;;4989282;28;20072;-60
2022/09/16 05:17:30;;;;;;;2.50;1.05;;;10.40;99.90;;;;;;4986635;28;20026;-59
2022/09/16 05:19:57;;;;;;;4.00;0.70;;;10.50;99.90;;;;;;4987603;28;20031;-60
2022/09/16 05:22:23;;;;;;;3.83;0.90;;;10.50;99.90;;;;;;4989821;28;20023;-60
2022/09/16 05:24:49;;;;;;;2.80;1.23;;;10.60;99.90;;;;;;4987182;28;20505;-60
2022/09/16 05:27:15;;;;;;;1.73;0.60;;;10.60;99.90;;;;;;4989338;28;20030;-60
2022/09/16 05:29:40;;;;;;;3.58;1.02;;;10.70;99.90;;;;;;4987607;28;20605;-59
2022/09/16 05:32:06;;;;;;;1.52;0.65;;;10.80;99.90;;;;;;4989124;28;20125;-60
2022/09/16 05:34:34;;;;;;;4.63;0.88;;;10.80;99.90;;;;;;4988077;28;20390;-60
2022/09/16 05:37:00;;;;;;;4.63;1.08;;;10.90;99.90;;;;;;4987854;28;20031;-60
2022/09/16 05:39:26;;;;;;;2.40;0.80;;;11.00;99.90;;;;;;4988273;28;20081;-60
2022/09/16 05:41:55;;;;;;;2.05;0.60;;;11.00;99.90;;;;;;4985552;28;20030;-60
2022/09/16 05:44:21;;;;;;;1.13;0.60;;;11.00;99.90;;;;;;4988873;28;20494;-60
2022/09/16 05:46:47;;;;;;;2.72;0.93;;;11.10;99.90;;;;;;4987407;28;20106;-59
2022/09/16 05:49:13;;;;;;;2.28;0.70;;;11.10;99.90;;;;;;4989036;28;20104;-60
2022/09/16 05:51:42;;;;;;;1.85;0.90;;;11.20;99.90;;;;;;4986752;28;20042;-60
2022/09/16 05:54:08;;;;;;;5.55;1.20;;;11.20;99.90;;;;;;4984596;28;20019;-60
2022/09/16 05:56:34;;;;;;;2.58;0.77;;;11.30;99.90;;;;;;4986974;28;20033;-59
2022/09/16 05:59:00;;;;;;;5.60;0.82;;;11.30;99.90;;;;;;4987693;28;20455;-59
2022/09/16 06:01:29;;;;;;;2.28;0.60;;;11.30;99.90;;;;;;4990915;28;20026;-60
2022/09/16 06:03:55;;;;;;;3.85;1.00;;;11.30;99.90;;;;;;4989052;28;20125;-60
2022/09/16 06:06:41;;;;;;;2.10;0.70;;;11.30;99.90;;;;;;4989289;28;20105;-60
2022/09/16 06:09:14;;;;;;;0.60;0.40;;;11.30;99.90;;;;;;4985203;28;20544;-59
2022/09/16 06:11:43;;;;;;;6.95;0.68;;;11.40;99.90;;;;;;4977779;28;20030;-60
2022/09/16 06:14:09;;;;;;;3.15;0.60;;;11.40;99.90;;;;;;4990904;28;20497;-60
2022/09/16 06:16:36;;;;;;;2.03;0.60;;;11.40;99.90;;;;;;4989090;28;20026;-60
2022/09/16 06:19:09;;;;;;;4.22;0.77;;;11.40;99.90;;;;;;4990948;28;20034;-60
2022/09/16 06:21:36;;;;;;;3.00;0.55;;;11.40;99.90;;;;;;4987033;28;20045;-57
2022/09/16 06:24:02;;;;;;;3.40;0.95;;;11.50;99.90;;;;;;4989121;28;20113;-60
2022/09/16 06:26:28;;;;;;;2.05;0.50;;;11.50;99.90;;;;;;4986884;28;20537;-60
2022/09/16 06:28:54;;;;;;;3.13;0.43;;;11.50;99.90;;;;;;4988778;28;20030;-59
2022/09/16 06:31:23;;;;;;;3.22;0.50;;;11.60;99.90;;;;;;4988282;28;20425;-59
2022/09/16 06:33:49;;;;;;;1.05;0.50;;;11.60;99.90;;;;;;4982232;28;20544;-59
2022/09/16 06:36:30;;;;;;;2.55;0.73;;;11.80;99.90;;;;;;4989863;28;20027;-59
2022/09/16 06:38:56;;;;;;;2.13;0.55;;;11.80;99.90;;;;;;4986078;28;20089;-59
2022/09/16 06:41:22;;;;;;;1.23;0.60;;;11.90;99.90;;;;;;4989728;28;20485;-60
2022/09/16 06:43:52;;;;;;;2.47;0.55;;;11.90;99.90;;;;;;4988574;28;20055;-59
2022/09/16 06:46:23;;;;;;;2.55;0.88;;;11.90;99.90;;;;;;4990652;28;20124;-59
2022/09/16 06:48:52;;;;;;;1.98;0.80;;;12.00;99.90;;;;;;4988405;28;20509;-59
2022/09/16 06:51:22;;;;;;;2.42;0.57;;;12.00;99.90;;;;;;4989968;28;20030;-60
2022/09/16 06:53:49;;;;;;;3.33;0.90;;;12.00;99.90;;;;;;4982366;28;20065;-60
2022/09/16 06:56:18;;;;;;;1.48;0.65;;;12.00;99.90;;;;;;4989370;28;20085;-60
2022/09/16 06:58:49;;;;;;;0.38;0.30;;;12.00;99.90;;;;;;4988582;28;20034;-60
2022/09/16 07:01:23;;;;;;;1.63;0.70;;;12.00;99.90;;;;;;4987707;28;20034;-59
2022/09/16 07:03:51;;;;;;;6.07;1.00;;;12.00;99.90;;;;;;4987410;28;20034;-60
2022/09/16 07:06:19;;;;;;;1.75;0.70;;;12.00;99.90;;;;;;4989942;28;20034;-60
2022/09/16 07:08:45;;;;;;;1.70;0.47;;;12.00;99.90;;;;;;4985847;28;20057;-60
2022/09/16 07:11:14;;;;;;;3.53;0.68;;;12.00;99.90;;;;;;4981921;28;20041;-60
2022/09/16 07:13:41;;;;;;;2.30;0.50;;;12.00;99.90;;;;;;4985864;28;20041;-59
2022/09/16 07:16:10;;;;;;;1.35;0.40;;;12.00;99.90;;;;;;4986541;28;20030;-60
2022/09/16 07:18:37;;;;;;;2.40;0.50;;;11.80;99.90;;;;;;4981580;28;20567;-60
2022/09/16 07:21:05;;;;;;;7.05;0.93;;;11.80;99.90;;;;;;4986608;28;20081;-60
2022/09/16 07:23:34;;;;;;;3.58;0.85;;;11.70;99.90;;;;;;4986881;28;20553;-60
2022/09/16 07:26:05;;;;;;;3.28;0.65;;;11.60;99.90;;;;;;4985778;28;20030;-60
2022/09/16 07:28:32;;;;;;;4.43;0.70;;;11.50;99.90;;;;;;4983277;28;20371;-60
2022/09/16 07:31:06;;;;;;;2.85;0.85;;;11.40;99.90;;;;;;4986400;28;20120;-60
2022/09/16 07:33:39;;;;;;;0.63;0.40;;;11.40;99.90;;;;;;4983603;28;20038;-61
2022/09/16 07:36:06;;;;;;;1.45;0.77;;;11.30;99.90;;;;;;4986091;28;20108;-60
2022/09/16 07:38:33;;;;;;;1.95;0.60;;;11.20;99.90;;;;;;4985469;28;20038;-60
2022/09/16 07:41:10;;;;;;;0.68;0.40;;;11.10;99.90;;;;;;4985101;28;20018;-59
2022/09/16 07:43:36;;;;;;;3.13;0.90;;;11.20;99.90;;;;;;4984300;28;20050;-60
2022/09/16 07:46:02;;;;;;;1.65;1.10;;;11.40;99.90;;;;;;4983960;28;20031;-60
2022/09/16 07:48:32;;;;;;;3.70;0.50;;;11.60;99.90;;;;;;4985968;28;20087;-60
2022/09/16 07:51:00;;;;;;;1.02;0.65;;;11.60;99.90;;;;;;4984962;28;20038;-59
2022/09/16 07:53:28;;;;;;;2.63;1.15;;;11.90;99.90;;;;;;4986024;28;20030;-59
2022/09/16 07:55:55;;;;;;;4.47;1.08;;;12.10;99.90;;;;;;4984168;28;20057;-59
2022/09/16 07:58:21;;;;;;;5.28;1.80;;;12.30;99.90;;;;;;4982192;28;20038;-59
2022/09/16 08:00:48;;;;;;;4.32;0.93;;;12.50;99.90;;;;;;4983310;28;20019;-60
2022/09/16 08:03:15;;;;;;;2.47;0.43;;;12.70;99.90;;;;;;4989649;28;20034;-60
2022/09/16 08:05:41;;;;;;;1.70;0.60;;;12.80;99.90;;;;;;4988476;28;20045;-60
2022/09/16 08:08:06;;;;;;;0.82;0.60;;;13.00;99.90;;;;;;4990215;28;20421;-60
2022/09/16 08:10:32;;;;;;;2.75;0.90;;;13.00;99.90;;;;;;4987634;28;20022;-60
2022/09/16 08:12:58;;;;;;;4.07;0.82;;;13.20;99.90;;;;;;4986863;28;20046;-60
2022/09/16 08:15:24;;;;;;;1.88;0.70;;;13.30;99.90;;;;;;4987034;28;20426;-60
2022/09/16 08:17:50;;;;;;;2.70;1.20;;;13.40;99.90;;;;;;4988571;28;20121;-59
2022/09/16 08:20:15;;;;;;;2.58;0.60;;;13.40;99.90;;;;;;4990066;28;20098;-59
2022/09/16 08:22:42;;;;;;;1.30;0.55;;;13.40;99.90;;;;;;4988300;28;20038;-59
2022/09/16 08:25:07;;;;;;;2.70;0.50;;;13.30;99.90;;;;;;4989766;28;20101;-59
2022/09/16 08:27:36;;;;;;;1.80;0.98;;;13.20;99.90;;;;;;4987988;28;21854;-58
2022/09/16 08:30:03;;;;;;;1.13;0.47;;;13.30;99.90;;;;;;4989819;28;20030;-60
2022/09/16 08:32:30;;;;;;;1.85;0.38;;;13.20;99.90;;;;;;4987127;28;20050;-59
2022/09/16 08:34:56;;;;;;;4.28;1.10;;;13.20;99.90;;;;;;4986961;28;20030;-59
2022/09/16 08:37:22;;;;;;;1.48;0.50;;;13.30;99.90;;;;;;4988896;28;20092;-59
2022/09/16 08:39:48;;;;;;;2.42;0.95;;;13.40;99.90;;;;;;4983794;28;20030;-59
2022/09/16 08:42:28;;;;;;;1.63;0.60;;;13.50;99.90;;;;;;4990139;28;20482;-59
2022/09/16 08:45:18;;;;;;;1.90;0.65;;;13.60;99.90;;;;;;4980493;28;20133;-59
2022/09/16 08:48:35;;;;;;;3.35;0.82;;;13.50;99.90;;;;;;4989791;28;20031;-59
2022/09/16 08:51:01;;;;;;;2.78;0.90;;;13.40;99.90;;;;;;4949527;29;20036;-59
2022/09/16 08:53:46;;;;;;;1.55;0.73;;;13.30;99.90;;;;;;4950526;28;20039;-59
2022/09/16 08:56:17;;;;;;;5.85;2.22;;;13.30;99.90;;;;;;4950325;28;20024;-60
2022/09/16 08:58:50;;;;;;;4.03;1.27;;;13.40;99.90;;;;;;4948033;28;20068;-59
2022/09/16 09:01:19;;;;;;;;;;;13.50;99.90;;;;;;4951540;29;20031;-59
2022/09/16 09:03:46;;;;;;;1.95;0.75;;;13.60;99.90;;;;;;4949217;29;19949;-60
2022/09/16 09:06:12;;;;;;;0.50;0.50;;;13.60;99.90;;;;;;4947241;29;20030;-61
2022/09/16 09:08:59;;;;;;;5.47;2.33;;;13.70;99.90;;;;;;4947839;29;20035;-59
2022/09/16 09:11:49;;;;;;;2.85;0.90;;;13.80;99.90;;;;;;4950203;29;20039;-60
2022/09/16 09:14:21;;;;;;;0.70;0.70;;;13.80;99.90;;;;;;4947733;28;20035;-60
2022/09/16 09:17:22;;;;;;;2.70;0.70;;;13.80;99.90;;;;;;4946817;28;20043;-60
2022/09/16 09:20:14;;;;;;;3.28;0.90;;;13.80;99.90;;;;;;4930378;29;20081;-60
2022/09/16 09:23:00;;;;;;;1.75;0.77;;;13.90;99.90;;;;;;4931596;29;20423;-60
2022/09/16 09:25:43;;;;;;;1.08;0.77;;;14.00;99.90;;;;;;4948203;28;20173;-58
2022/09/16 09:28:20;;;;;;;3.63;0.80;;;14.00;99.90;;;;;;4981319;28;20041;-59
2022/09/16 09:31:27;;;;;;;3.95;0.70;;;14.10;99.90;;;;;;4982802;28;20387;-59
2022/09/16 09:34:00;;;;;;;2.13;0.80;;;14.20;99.90;;;;;;4987859;28;20035;-59
2022/09/16 09:37:10;;;;;;;2.67;0.70;;;14.30;99.90;;;;;;4988492;28;20042;-59
2022/09/16 09:39:41;;;;;;;2.45;0.90;;;14.50;99.90;;;;;;4973861;28;20078;-59
2022/09/16 09:42:30;;;;;;;1.85;0.65;;;14.60;99.90;;;;;;4987708;28;20588;-60
2022/09/16 09:45:28;;;;;;;2.95;1.10;;;14.70;99.90;;;;;;4987003;28;20042;-59
2022/09/16 09:47:58;;;;;;;4.38;0.63;;;14.90;99.90;;;;;;4987603;28;20046;-60
2022/09/16 09:50:28;;;;;;;0.73;0.57;;;14.90;99.90;;;;;;4982775;28;20026;-60
2022/09/16 09:53:11;;;;;;;1.83;0.57;;;14.90;99.90;;;;;;4986921;28;20074;-60
2022/09/16 09:55:37;;;;;;;;;;;14.90;99.90;;;;;;4986083;28;20084;-59
2022/09/16 09:58:25;;;;;;;2.70;0.50;;;15.00;99.90;;;;;;4983847;28;19910;-59
2022/09/16 10:00:57;;;;;;;4.22;0.93;;;15.20;99.90;;;;;;4982534;28;20026;-61
2022/09/16 10:03:24;;;;;;;1.17;0.75;;;15.40;99.90;;;;;;4984409;28;20077;-58
2022/09/16 10:05:50;;;;;;;3.97;0.35;;;15.50;99.90;;;;;;4978535;28;20042;-59
2022/09/16 10:08:18;;;;;;;2.80;0.70;;;15.60;99.90;;;;;;4985515;28;20025;-59
2022/09/16 10:10:51;;;;;;;4.63;1.23;;;15.70;99.90;;;;;;4982932;28;20034;-60
2022/09/16 10:13:18;;;;;;;2.38;0.52;;;15.90;99.90;;;;;;4986254;28;20384;-59
2022/09/16 10:15:45;;;;;;;2.95;0.60;;;16.20;99.90;;;;;;4984450;28;20096;-60
2022/09/16 10:18:24;;;;;;;2.70;0.77;;;16.30;99.90;;;;;;4983089;28;20026;-59
2022/09/16 10:21:09;;;;;;;2.53;0.55;;;16.70;99.90;;;;;;4982771;28;20509;-61
2022/09/16 10:23:37;;;;;;;4.53;0.90;;;17.00;99.90;;;;;;4979500;28;20121;-59
2022/09/16 10:26:27;;;;;;;2.53;0.80;;;17.10;99.90;;;;;;4984966;28;20105;-60
2022/09/16 10:28:58;;;;;;;3.25;0.50;;;16.50;99.90;;;;;;4972931;28;20042;-58
2022/09/16 10:31:28;;;;;;;3.47;1.10;;;16.50;99.90;;;;;;4980301;28;20099;-58
2022/09/16 10:33:55;;;;;;;2.95;1.08;;;16.50;99.90;;;;;;4981626;28;20058;-61
2022/09/16 10:36:25;;;;;;;5.13;0.77;;;16.50;99.90;;;;;;4986813;28;20024;-58
2022/09/16 10:38:59;;;;;;;3.38;0.80;;;16.30;99.90;;;;;;4979791;28;20049;-58
2022/09/16 10:41:39;;;;;;;1.80;0.70;;;16.20;99.90;;;;;;4982419;28;20077;-58
2022/09/16 10:44:36;;;;;;;4.38;0.98;;;16.30;99.90;;;;;;4983582;28;20070;-59
2022/09/16 10:47:09;;;;;;;1.92;0.65;;;16.60;99.90;;;;;;4982847;28;20085;-60
2022/09/16 10:49:42;;;;;;;1.70;0.57;;;16.70;99.90;;;;;;4982541;28;20077;-60
2022/09/16 10:52:19;;;;;;;2.30;0.52;;;17.00;99.90;;;;;;4984112;28;20497;-59
2022/09/16 10:54:45;;;;;;;1.08;0.65;;;17.40;99.90;;;;;;4978160;28;20030;-60
2022/09/16 10:57:27;;;;;;;2.65;1.02;;;17.60;99.90;;;;;;4982216;28;20039;-58
2022/09/16 10:59:57;;;;;;;;;;;17.70;99.90;;;;;;4979612;28;20034;-61
2022/09/16 11:02:33;;;;;;;1.35;0.52;;;17.70;99.90;;;;;;4985876;28;20012;-60
2022/09/16 11:05:31;;;;;;;1.48;0.52;;;17.40;99.90;;;;;;4979674;28;20039;-59
2022/09/16 11:08:15;;;;;;;0.95;0.40;;;17.10;99.90;;;;;;4974564;28;20030;-59
2022/09/16 11:10:54;;;;;;;1.20;0.40;;;17.30;99.90;;;;;;4970241;28;20034;-60
2022/09/16 11:13:48;;;;;;;0.68;0.47;;;17.80;99.90;;;;;;4976216;28;20510;-59
2022/09/16 11:16:38;;;;;;;0.47;0.40;;;18.60;99.90;;;;;;4952664;28;20034;-59
2022/09/16 11:19:33;;;;;;;1.75;0.45;;;19.30;99.90;;;;;;4973572;28;20045;-60
2022/09/16 11:22:01;;;;;;;1.35;0.45;;;18.70;99.90;;;;;;4944563;29;20035;-60
2022/09/16 11:24:39;;;;;;;1.65;0.60;;;19.00;99.90;;;;;;4941084;28;20027;-60
2022/09/16 11:27:15;;;;;;;3.80;0.80;;;20.00;99.90;;;;;;4937962;28;20126;-60
2022/09/16 11:29:56;;;;;;;0.75;0.38;;;20.20;99.90;;;;;;4942564;29;20046;-60
2022/09/16 11:32:59;;;;;;;0.85;0.43;;;19.80;99.90;;;;;;4943950;29;20054;-62
2022/09/16 11:35:31;;;;;;;1.58;0.50;;;19.50;99.90;;;;;;4935464;29;20231;-61
2022/09/16 11:37:56;;;;;;;2.60;0.50;;;19.90;99.90;;;;;;4941469;29;20099;-61
2022/09/16 11:41:01;;;;;;;1.55;0.30;;;20.40;99.90;;;;;;4941125;28;20685;-61
2022/09/16 11:43:45;;;;;;;1.17;0.30;;;19.70;99.90;;;;;;4936662;29;20052;-60
2022/09/16 11:46:32;;;;;;;2.78;0.43;;;18.80;99.90;;;;;;4921017;29;20032;-60
2022/09/16 11:49:03;;;;;;;1.15;0.50;;;18.90;99.90;;;;;;4923468;29;20024;-61
2022/09/16 11:51:34;;;;;;;2.22;0.47;;;18.80;99.90;;;;;;4924460;29;20044;-59
2022/09/16 11:54:21;;;;;;;1.25;0.40;;;19.10;99.90;;;;;;4924961;29;20451;-60
2022/09/16 11:56:55;;;;;;;0.57;0.40;;;18.90;99.90;;;;;;4923665;29;20094;-60
2022/09/16 11:59:25;;;;;;;1.02;0.30;;;19.30;99.90;;;;;;4976600;28;20054;-60
2022/09/16 12:02:00;;;;;;;1.15;0.40;;;20.20;99.70;;;;;;4981294;28;20034;-60
2022/09/16 12:04:37;;;;;;;0.68;0.30;;;21.10;97.70;;;;;;4982665;28;20394;-61
2022/09/16 12:07:10;;;;;;;0.47;0.30;;;21.50;92.20;;;;;;4980650;28;20110;-60
2022/09/16 12:09:43;;;;;;;1.90;0.35;;;21.20;92.60;;;;;;4979654;28;20030;-60
2022/09/16 12:12:13;;;;;;;1.48;0.50;;;21.70;93.10;;;;;;4984160;28;20522;-59
2022/09/16 12:14:48;;;;;;;0.30;0.30;;;21.20;93.60;;;;;;4979766;28;20026;-60
2022/09/16 12:17:22;;;;;;;3.38;0.50;;;20.80;94.00;;;;;;4981227;28;20505;-60
2022/09/16 12:20:15;;;;;;;1.30;0.50;;;20.80;93.50;;;;;;4978579;28;20082;-60
2022/09/16 12:22:49;;;;;;;0.20;0.20;;;21.60;92.60;;;;;;4981497;28;20057;-59
2022/09/16 12:25:26;;;;;;;0.95;0.32;;;22.30;91.40;;;;;;4979425;28;20110;-60
2022/09/16 12:28:02;;;;;;;3.33;0.65;;;22.70;85.90;;;;;;4975593;28;20043;-60
2022/09/16 12:30:41;;;;;;;2.42;0.93;;;23.10;82.00;;;;;;4982162;28;20478;-60
2022/09/16 12:33:19;;;;;;;0.90;0.40;;;22.90;77.70;;;;;;4984564;28;20090;-60
2022/09/16 12:35:51;;;;;;;0.75;0.40;;;21.30;85.00;;;;;;4981987;28;20031;-59
2022/09/16 12:38:19;;;;;;;1.98;0.80;;;20.30;91.60;;;;;;4981494;28;20027;-59
2022/09/16 12:41:06;;;;;;;1.58;0.32;;;19.30;93.70;;;;;;4973696;28;20026;-59
2022/09/16 12:44:03;;;;;;;2.05;0.60;;;19.00;95.90;;;;;;4976950;28;20082;-59
2022/09/16 12:47:06;;;;;;;1.40;0.70;;;19.50;95.30;;;;;;4979233;28;20027;-59
2022/09/16 12:49:55;;;;;;;2.47;0.47;;;20.90;90.90;;;;;;4984021;28;20034;-58
2022/09/16 12:52:45;;;;;;;0.60;0.45;;;21.70;86.00;;;;;;4983585;28;20137;-59
2022/09/16 12:55:36;;;;;;;0.95;0.35;;;22.30;76.40;;;;;;4985716;28;20563;-59
2022/09/16 12:58:43;;;;;;;1.33;0.40;;;22.80;73.70;;;;;;4986061;28;20037;-59
2022/09/16 13:01:16;;;;;;;1.50;0.35;;;21.50;77.30;;;;;;4953182;28;20047;-59
2022/09/16 13:03:49;;;;;;;0.70;0.30;;;20.10;82.00;;;;;;4939841;28;20039;-60
2022/09/16 13:06:23;;;;;;;0.88;0.43;;;20.00;82.70;;;;;;4948209;28;20027;-59
2022/09/16 13:08:50;;;;;;;1.67;0.30;;;21.00;75.90;;;;;;4950229;28;20046;-59
2022/09/16 13:11:28;;;;;;;1.10;0.60;;;22.30;71.50;;;;;;4949688;28;20055;-58
2022/09/16 13:13:56;;;;;;;0.90;0.20;;;23.30;65.30;;;;;;4947639;28;20141;-60
2022/09/16 13:16:34;;;;;;;0.88;0.50;;;23.00;59.30;;;;;;4944143;28;20027;-61
2022/09/16 13:19:45;;;;;;;0.95;0.30;;;22.60;62.00;;;;;;4944383;28;20031;-60